createdAt,value
2018-12-31T00:00:47.591Z,0.00
2018-12-31T00:01:47.619Z,0.00
2018-12-31T00:02:47.660Z,0.00
2018-12-31T00:03:47.700Z,0.00
2018-12-31T00:04:47.731Z,0.00
2018-12-31T00:05:47.767Z,0.00
2018-12-31T00:06:47.804Z,0.00
2018-12-31T00:07:47.849Z,0.00
2018-12-31T00:08:47.879Z,0.00
2018-12-31T00:09:47.921Z,0.00
2018-12-31T00:10:47.952Z,0.00
2018-12-31T00:11:47.989Z,0.00
2018-12-31T00:12:48.029Z,0.00
2018-12-31T00:13:48.066Z,0.00
2018-12-31T00:14:48.101Z,0.00
2018-12-31T00:15:48.138Z,0.00
2018-12-31T00:16:48.178Z,0.00
2018-12-31T00:17:48.218Z,0.00
2018-12-31T00:18:48.255Z,0.00
2018-12-31T00:19:48.299Z,0.00
2018-12-31T00:20:48.330Z,0.00
2018-12-31T00:21:48.362Z,0.00
2018-12-31T00:22:48.398Z,0.00
2018-12-31T00:23:48.437Z,0.00
2018-12-31T00:24:48.479Z,0.00
2018-12-31T00:25:48.512Z,0.00
2018-12-31T00:26:48.557Z,0.00
2018-12-31T00:27:48.592Z,0.00
2018-12-31T00:28:48.624Z,0.00
2018-12-31T00:29:48.661Z,0.00
2018-12-31T00:30:48.848Z,0.00
2018-12-31T00:31:48.737Z,0.00
2018-12-31T00:32:48.772Z,0.00
2018-12-31T00:33:48.812Z,0.00
2018-12-31T00:34:48.846Z,0.00
2018-12-31T00:35:48.885Z,0.00
2018-12-31T00:36:48.924Z,0.00
2018-12-31T00:37:48.966Z,0.00
2018-12-31T00:38:48.995Z,0.00
2018-12-31T00:39:49.037Z,0.00
2018-12-31T00:40:49.129Z,0.00
2018-12-31T00:41:49.109Z,0.00
2018-12-31T00:42:49.146Z,0.00
2018-12-31T00:43:49.194Z,0.00
2018-12-31T00:44:49.222Z,0.00
2018-12-31T00:45:49.259Z,0.00
2018-12-31T00:46:49.295Z,0.00
2018-12-31T00:47:49.337Z,0.00
2018-12-31T00:48:49.372Z,0.00
2018-12-31T00:49:49.407Z,0.00
2018-12-31T00:50:49.444Z,0.00
2018-12-31T00:51:49.483Z,0.00
2018-12-31T00:52:49.522Z,0.00
2018-12-31T00:53:49.556Z,0.00
2018-12-31T00:54:49.595Z,0.00
2018-12-31T00:55:49.634Z,0.00
2018-12-31T00:56:49.671Z,0.00
2018-12-31T00:57:49.709Z,0.00
2018-12-31T00:58:49.748Z,0.00
2018-12-31T00:59:49.841Z,0.00
2018-12-31T01:00:49.820Z,0.00
2018-12-31T01:01:49.856Z,0.00
2018-12-31T01:02:49.895Z,0.00
2018-12-31T01:03:49.934Z,0.00
2018-12-31T01:04:49.975Z,0.00
2018-12-31T01:05:50.007Z,0.00
2018-12-31T01:06:50.043Z,0.00
2018-12-31T01:07:50.080Z,0.00
2018-12-31T01:08:50.125Z,0.00
2018-12-31T01:09:50.156Z,0.00
2018-12-31T01:10:50.192Z,0.00
2018-12-31T01:11:50.230Z,0.00
2018-12-31T01:12:50.270Z,0.00
2018-12-31T01:13:50.315Z,0.00
2018-12-31T01:14:50.346Z,0.00
2018-12-31T01:15:50.388Z,0.00
2018-12-31T01:16:50.421Z,0.00
2018-12-31T01:17:50.457Z,0.00
2018-12-31T01:18:50.494Z,0.00
2018-12-31T01:19:50.529Z,0.00
2018-12-31T01:20:50.575Z,0.00
2018-12-31T01:21:50.649Z,0.00
2018-12-31T01:22:50.642Z,0.00
2018-12-31T01:23:50.681Z,0.00
2018-12-31T01:24:50.718Z,0.00
2018-12-31T01:25:50.765Z,0.00
2018-12-31T01:26:50.797Z,0.00
2018-12-31T01:27:50.831Z,0.00
2018-12-31T01:28:50.879Z,0.00
2018-12-31T01:29:50.904Z,0.00
2018-12-31T01:30:50.968Z,0.00
2018-12-31T01:31:50.979Z,0.00
2018-12-31T01:32:51.029Z,0.00
2018-12-31T01:33:52.606Z,0.00
2018-12-31T01:34:51.090Z,0.00
2018-12-31T01:35:51.179Z,0.00
2018-12-31T01:36:51.166Z,0.00
2018-12-31T01:37:51.203Z,0.00
2018-12-31T01:38:51.240Z,0.00
2018-12-31T01:39:51.277Z,0.00
2018-12-31T01:40:51.323Z,0.00
2018-12-31T01:41:51.356Z,0.00
2018-12-31T01:42:51.397Z,0.00
2018-12-31T01:43:51.428Z,0.00
2018-12-31T01:44:51.470Z,0.00
2018-12-31T01:45:51.503Z,0.00
2018-12-31T01:46:51.538Z,0.00
2018-12-31T01:47:51.576Z,0.00
2018-12-31T01:48:51.621Z,0.00
2018-12-31T01:49:51.655Z,0.00
2018-12-31T01:50:51.698Z,0.00
2018-12-31T01:51:51.727Z,0.00
2018-12-31T01:52:51.767Z,0.00
2018-12-31T01:53:51.812Z,0.00
2018-12-31T01:54:51.839Z,0.00
2018-12-31T01:55:51.875Z,0.00
2018-12-31T01:56:51.913Z,0.00
2018-12-31T01:57:51.950Z,0.00
2018-12-31T01:58:51.987Z,0.00
2018-12-31T01:59:52.033Z,0.00
2018-12-31T02:00:52.063Z,0.00
2018-12-31T02:01:52.110Z,0.00
2018-12-31T02:02:52.138Z,0.00
2018-12-31T02:03:52.186Z,0.00
2018-12-31T02:04:52.221Z,0.00
2018-12-31T02:05:52.255Z,0.00
2018-12-31T02:06:52.286Z,0.00
2018-12-31T02:07:52.326Z,0.00
2018-12-31T02:08:52.362Z,0.00
2018-12-31T02:09:52.401Z,0.00
2018-12-31T02:10:52.436Z,0.00
2018-12-31T02:11:52.476Z,0.00
2018-12-31T02:12:52.510Z,0.00
2018-12-31T02:13:52.550Z,0.00
2018-12-31T02:14:52.585Z,0.00
2018-12-31T02:15:52.622Z,0.00
2018-12-31T02:16:52.663Z,0.00
2018-12-31T02:17:52.698Z,0.00
2018-12-31T02:18:52.736Z,0.00
2018-12-31T02:19:52.780Z,0.00
2018-12-31T02:20:52.815Z,0.00
2018-12-31T02:21:52.850Z,0.00
2018-12-31T02:22:52.929Z,0.00
2018-12-31T02:23:52.921Z,0.00
2018-12-31T02:24:52.959Z,0.00
2018-12-31T02:25:52.995Z,0.00
2018-12-31T02:26:53.041Z,0.00
2018-12-31T02:27:53.069Z,0.00
2018-12-31T02:28:53.159Z,0.00
2018-12-31T02:29:53.146Z,0.00
2018-12-31T02:30:53.204Z,0.00
2018-12-31T02:31:53.230Z,0.00
2018-12-31T02:32:53.257Z,0.00
2018-12-31T02:33:53.294Z,0.00
2018-12-31T02:34:53.332Z,0.00
2018-12-31T02:35:53.370Z,0.00
2018-12-31T02:36:53.406Z,0.00
2018-12-31T02:37:53.450Z,0.00
2018-12-31T02:38:53.479Z,0.00
2018-12-31T02:39:53.523Z,0.00
2018-12-31T02:40:53.558Z,0.00
2018-12-31T02:41:53.591Z,0.00
2018-12-31T02:42:53.627Z,0.00
2018-12-31T02:43:53.667Z,0.00
2018-12-31T02:44:53.705Z,0.00
2018-12-31T02:45:53.740Z,0.00
2018-12-31T02:46:53.775Z,0.00
2018-12-31T02:47:53.815Z,0.00
2018-12-31T02:48:53.860Z,0.00
2018-12-31T02:49:53.889Z,0.00
2018-12-31T02:50:53.926Z,0.00
2018-12-31T02:51:53.966Z,0.00
2018-12-31T02:52:54.009Z,0.00
2018-12-31T02:53:54.038Z,0.00
2018-12-31T02:54:54.078Z,0.00
2018-12-31T02:55:54.112Z,0.00
2018-12-31T02:56:54.160Z,0.00
2018-12-31T02:57:54.188Z,0.00
2018-12-31T02:58:54.225Z,0.00
2018-12-31T02:59:54.261Z,0.00
2018-12-31T03:00:54.312Z,0.00
2018-12-31T03:01:54.339Z,0.00
2018-12-31T03:02:54.373Z,0.00
2018-12-31T03:03:54.418Z,0.00
2018-12-31T03:04:54.448Z,0.00
2018-12-31T03:05:54.486Z,0.00
2018-12-31T03:06:54.531Z,0.00
2018-12-31T03:07:54.560Z,0.00
2018-12-31T03:08:54.595Z,0.00
2018-12-31T03:09:54.635Z,0.00
2018-12-31T03:10:54.669Z,0.00
2018-12-31T03:11:54.711Z,0.00
2018-12-31T03:12:54.753Z,0.00
2018-12-31T03:13:54.781Z,0.00
2018-12-31T03:14:54.818Z,0.00
2018-12-31T03:15:54.857Z,0.00
2018-12-31T03:16:54.898Z,0.00
2018-12-31T03:17:54.939Z,0.00
2018-12-31T03:18:55.025Z,0.00
2018-12-31T03:19:55.008Z,0.00
2018-12-31T03:20:55.040Z,0.00
2018-12-31T03:21:55.081Z,0.00
2018-12-31T03:22:55.118Z,0.00
2018-12-31T03:23:55.158Z,0.00
2018-12-31T03:24:55.191Z,0.00
2018-12-31T03:25:55.238Z,0.00
2018-12-31T03:26:55.274Z,0.00
2018-12-31T03:27:55.303Z,0.00
2018-12-31T03:28:55.341Z,0.00
2018-12-31T03:29:55.389Z,0.00
2018-12-31T03:30:55.434Z,0.00
2018-12-31T03:31:55.453Z,0.00
2018-12-31T03:32:55.489Z,0.00
2018-12-31T03:33:55.533Z,0.00
2018-12-31T03:34:55.565Z,0.00
2018-12-31T03:35:55.602Z,0.00
2018-12-31T03:36:55.639Z,0.00
2018-12-31T03:37:55.693Z,0.00
2018-12-31T03:38:55.712Z,0.00
2018-12-31T03:39:55.761Z,0.00
2018-12-31T03:40:55.792Z,0.00
2018-12-31T03:41:55.833Z,0.00
2018-12-31T03:42:55.867Z,0.00
2018-12-31T03:43:55.900Z,0.00
2018-12-31T03:44:55.988Z,0.00
2018-12-31T03:45:55.974Z,0.00
2018-12-31T03:46:56.031Z,0.00
2018-12-31T03:47:56.052Z,0.00
2018-12-31T03:48:56.085Z,0.00
2018-12-31T03:49:56.124Z,0.00
2018-12-31T03:50:56.160Z,0.00
2018-12-31T03:51:56.249Z,0.00
2018-12-31T03:52:56.238Z,0.00
2018-12-31T03:53:56.272Z,0.00
2018-12-31T03:54:56.317Z,0.00
2018-12-31T03:55:56.347Z,0.00
2018-12-31T03:56:56.382Z,0.00
2018-12-31T03:57:56.422Z,0.00
2018-12-31T03:58:56.525Z,0.00
2018-12-31T03:59:56.495Z,0.00
2018-12-31T04:00:56.534Z,0.00
2018-12-31T04:01:56.574Z,0.00
2018-12-31T04:02:56.676Z,0.00
2018-12-31T04:03:56.645Z,0.00
2018-12-31T04:04:56.684Z,0.00
2018-12-31T04:05:56.723Z,0.00
2018-12-31T04:06:56.758Z,0.00
2018-12-31T04:07:56.795Z,0.00
2018-12-31T04:08:56.832Z,0.00
2018-12-31T04:09:56.870Z,0.00
2018-12-31T04:10:56.907Z,0.00
2018-12-31T04:11:56.944Z,0.00
2018-12-31T04:12:56.982Z,0.00
2018-12-31T04:13:57.018Z,0.00
2018-12-31T04:14:57.057Z,0.00
2018-12-31T04:15:57.094Z,0.00
2018-12-31T04:16:57.133Z,0.00
2018-12-31T04:17:57.170Z,0.00
2018-12-31T04:18:57.207Z,0.00
2018-12-31T04:19:57.243Z,0.00
2018-12-31T04:20:57.280Z,0.00
2018-12-31T04:21:57.318Z,0.00
2018-12-31T04:22:57.354Z,0.00
2018-12-31T04:23:57.406Z,0.00
2018-12-31T04:24:57.539Z,0.00
2018-12-31T04:25:57.502Z,0.00
2018-12-31T04:26:57.505Z,0.00
2018-12-31T04:27:57.540Z,0.00
2018-12-31T04:28:57.582Z,0.00
2018-12-31T04:29:57.617Z,0.00
2018-12-31T04:30:57.653Z,0.00
2018-12-31T04:31:57.695Z,0.00
2018-12-31T04:32:57.730Z,0.00
2018-12-31T04:33:57.768Z,0.00
2018-12-31T04:34:57.800Z,0.00
2018-12-31T04:35:57.840Z,0.00
2018-12-31T04:36:57.877Z,0.00
2018-12-31T04:37:57.917Z,0.00
2018-12-31T04:38:57.954Z,0.00
2018-12-31T04:39:57.989Z,0.00
2018-12-31T04:40:58.035Z,0.00
2018-12-31T04:41:58.064Z,0.00
2018-12-31T04:42:58.100Z,0.00
2018-12-31T04:43:58.138Z,0.00
2018-12-31T04:44:58.179Z,0.00
2018-12-31T04:45:58.222Z,0.00
2018-12-31T04:46:58.249Z,0.00
2018-12-31T04:47:58.288Z,0.00
2018-12-31T04:48:58.325Z,0.00
2018-12-31T04:49:58.361Z,0.00
2018-12-31T04:50:58.412Z,0.00
2018-12-31T04:51:58.436Z,0.00
2018-12-31T04:52:58.481Z,0.00
2018-12-31T04:53:58.518Z,0.00
2018-12-31T04:54:58.547Z,0.00
2018-12-31T04:55:58.585Z,0.00
2018-12-31T04:56:58.632Z,0.00
2018-12-31T04:57:58.660Z,0.00
2018-12-31T04:58:58.703Z,0.00
2018-12-31T04:59:58.734Z,0.00
2018-12-31T05:00:58.780Z,0.00
2018-12-31T05:01:58.809Z,0.00
2018-12-31T05:02:58.847Z,0.00
2018-12-31T05:03:58.884Z,0.00
2018-12-31T05:04:58.920Z,0.00
2018-12-31T05:05:58.958Z,0.00
2018-12-31T05:06:58.997Z,0.00
2018-12-31T05:07:59.031Z,0.00
2018-12-31T05:08:59.073Z,0.00
2018-12-31T05:09:59.111Z,0.00
2018-12-31T05:10:59.143Z,0.00
2018-12-31T05:11:59.232Z,0.00
2018-12-31T05:12:59.220Z,0.00
2018-12-31T05:13:59.259Z,0.00
2018-12-31T05:14:59.295Z,0.00
2018-12-31T05:15:59.332Z,0.00
2018-12-31T05:16:59.371Z,0.00
2018-12-31T05:17:59.410Z,0.00
2018-12-31T05:18:59.444Z,0.00
2018-12-31T05:19:59.481Z,0.00
2018-12-31T05:20:59.520Z,0.00
2018-12-31T05:21:59.556Z,0.00
2018-12-31T05:22:59.593Z,0.00
2018-12-31T05:23:59.638Z,0.00
2018-12-31T05:24:59.668Z,0.00
2018-12-31T05:25:59.707Z,0.00
2018-12-31T05:26:59.744Z,0.00
2018-12-31T05:27:59.781Z,0.00
2018-12-31T05:28:59.851Z,0.00
2018-12-31T05:29:59.856Z,0.00
2018-12-31T05:30:59.893Z,0.00
2018-12-31T05:31:59.930Z,0.00
2018-12-31T05:32:59.969Z,0.00
2018-12-31T05:34:00.007Z,0.00
2018-12-31T05:35:00.063Z,0.00
2018-12-31T05:36:00.080Z,0.00
2018-12-31T05:37:00.121Z,0.00
2018-12-31T05:38:00.214Z,0.00
2018-12-31T05:39:00.192Z,0.00
2018-12-31T05:40:00.229Z,0.00
2018-12-31T05:41:00.268Z,0.00
2018-12-31T05:42:00.304Z,0.00
2018-12-31T05:43:00.412Z,0.00
2018-12-31T05:44:00.380Z,0.00
2018-12-31T05:45:00.417Z,0.00
2018-12-31T05:46:00.458Z,0.00
2018-12-31T05:47:00.492Z,0.00
2018-12-31T05:48:00.534Z,0.00
2018-12-31T05:49:00.570Z,0.00
2018-12-31T05:50:00.607Z,0.00
2018-12-31T05:51:00.650Z,0.00
2018-12-31T05:52:00.686Z,0.00
2018-12-31T05:53:00.721Z,0.00
2018-12-31T05:54:00.755Z,0.00
2018-12-31T05:55:00.794Z,0.00
2018-12-31T05:56:00.831Z,0.00
2018-12-31T05:57:00.883Z,0.00
2018-12-31T05:58:00.906Z,0.00
2018-12-31T05:59:00.942Z,0.00
2018-12-31T06:00:00.987Z,0.00
2018-12-31T06:01:01.035Z,0.00
2018-12-31T06:02:01.055Z,0.00
2018-12-31T06:03:01.094Z,0.00
2018-12-31T06:04:01.133Z,0.00
2018-12-31T06:05:01.168Z,0.00
2018-12-31T06:06:01.206Z,0.00
2018-12-31T06:07:01.241Z,0.00
2018-12-31T06:08:01.285Z,0.00
2018-12-31T06:09:01.319Z,0.00
2018-12-31T06:10:01.355Z,0.00
2018-12-31T06:11:02.374Z,0.00
2018-12-31T06:12:01.505Z,0.00
2018-12-31T06:13:01.467Z,0.00
2018-12-31T06:14:01.507Z,0.00
2018-12-31T06:15:01.544Z,0.00
2018-12-31T06:16:01.581Z,0.00
2018-12-31T06:17:01.618Z,0.00
2018-12-31T06:18:01.654Z,0.00
2018-12-31T06:19:01.693Z,0.00
2018-12-31T06:20:01.728Z,0.00
2018-12-31T06:21:01.768Z,0.00
2018-12-31T06:22:01.813Z,0.00
2018-12-31T06:23:01.843Z,0.00
2018-12-31T06:24:01.880Z,0.00
2018-12-31T06:25:01.922Z,0.00
2018-12-31T06:26:01.955Z,0.00
2018-12-31T06:27:01.997Z,0.00
2018-12-31T06:28:02.028Z,0.00
2018-12-31T06:29:02.064Z,0.00
2018-12-31T06:30:02.507Z,0.00
2018-12-31T06:31:02.139Z,0.00
2018-12-31T06:32:02.176Z,0.00
2018-12-31T06:33:02.215Z,0.00
2018-12-31T06:34:02.251Z,0.00
2018-12-31T06:35:02.306Z,0.00
2018-12-31T06:36:02.326Z,0.00
2018-12-31T06:37:02.372Z,0.00
2018-12-31T06:38:02.452Z,0.00
2018-12-31T06:39:02.439Z,0.00
2018-12-31T06:40:02.478Z,0.00
2018-12-31T06:41:02.515Z,0.00
2018-12-31T06:42:02.551Z,0.00
2018-12-31T06:43:02.587Z,0.00
2018-12-31T06:44:02.625Z,0.00
2018-12-31T06:45:02.668Z,0.00
2018-12-31T06:46:02.702Z,0.00
2018-12-31T06:47:02.739Z,0.00
2018-12-31T06:48:02.824Z,0.00
2018-12-31T06:49:02.814Z,0.00
2018-12-31T06:50:02.848Z,0.00
2018-12-31T06:51:02.886Z,4.00
2018-12-31T06:52:02.926Z,0.00
2018-12-31T06:53:02.964Z,4.00
2018-12-31T06:54:03.000Z,4.00
2018-12-31T06:55:03.035Z,4.00
2018-12-31T06:56:03.073Z,4.00
2018-12-31T06:57:03.112Z,8.00
2018-12-31T06:58:03.151Z,4.00
2018-12-31T06:59:03.187Z,8.00
2018-12-31T07:00:03.233Z,8.00
2018-12-31T07:01:03.261Z,12.00
2018-12-31T07:02:03.298Z,12.00
2018-12-31T07:03:03.336Z,12.00
2018-12-31T07:04:04.740Z,12.00
2018-12-31T07:05:03.412Z,16.00
2018-12-31T07:06:03.456Z,20.00
2018-12-31T07:07:03.488Z,20.00
2018-12-31T07:08:03.524Z,28.00
2018-12-31T07:09:03.560Z,28.00
2018-12-31T07:10:03.598Z,36.00
2018-12-31T07:11:03.642Z,40.00
2018-12-31T07:12:03.673Z,44.00
2018-12-31T07:13:03.711Z,48.00
2018-12-31T07:14:03.753Z,52.00
2018-12-31T07:15:03.785Z,60.00
2018-12-31T07:16:03.824Z,64.00
2018-12-31T07:17:03.871Z,68.00
2018-12-31T07:18:03.897Z,68.00
2018-12-31T07:19:03.937Z,76.00
2018-12-31T07:20:03.974Z,76.00
2018-12-31T07:21:04.010Z,84.00
2018-12-31T07:22:04.056Z,96.00
2018-12-31T07:23:04.087Z,104.00
2018-12-31T07:24:04.128Z,116.00
2018-12-31T07:25:04.161Z,136.00
2018-12-31T07:26:04.199Z,152.00
2018-12-31T07:27:04.240Z,164.00
2018-12-31T07:28:04.273Z,172.00
2018-12-31T07:29:04.313Z,176.00
2018-12-31T07:30:04.354Z,176.00
2018-12-31T07:31:04.387Z,196.00
2018-12-31T07:32:04.424Z,212.00
2018-12-31T07:33:04.476Z,224.00
2018-12-31T07:34:04.498Z,232.00
2018-12-31T07:35:04.535Z,240.00
2018-12-31T07:36:04.571Z,236.00
2018-12-31T07:37:04.613Z,232.00
2018-12-31T07:38:04.657Z,244.00
2018-12-31T07:39:04.684Z,276.00
2018-12-31T07:40:04.725Z,292.00
2018-12-31T07:41:04.760Z,288.00
2018-12-31T07:42:04.801Z,320.00
2018-12-31T07:43:04.839Z,356.00
2018-12-31T07:44:04.873Z,372.00
2018-12-31T07:45:04.912Z,428.00
2018-12-31T07:46:04.948Z,492.00
2018-12-31T07:47:04.985Z,500.00
2018-12-31T07:48:05.022Z,496.00
2018-12-31T07:49:05.061Z,496.00
2018-12-31T07:50:05.199Z,480.00
2018-12-31T07:51:05.139Z,476.00
2018-12-31T07:52:05.173Z,468.00
2018-12-31T07:53:05.218Z,460.00
2018-12-31T07:54:05.253Z,464.00
2018-12-31T07:55:05.285Z,452.00
2018-12-31T07:56:05.336Z,440.00
2018-12-31T07:57:05.371Z,416.00
2018-12-31T07:58:05.399Z,416.00
2018-12-31T07:59:05.436Z,428.00
2018-12-31T08:00:05.475Z,432.00
2018-12-31T08:01:05.514Z,476.00
2018-12-31T08:02:05.550Z,544.00
2018-12-31T08:03:05.588Z,628.00
2018-12-31T08:04:05.738Z,700.00
2018-12-31T08:05:05.835Z,776.00
2018-12-31T08:06:05.700Z,828.00
2018-12-31T08:07:05.742Z,860.00
2018-12-31T08:08:05.777Z,888.00
2018-12-31T08:09:05.813Z,904.00
2018-12-31T08:10:05.855Z,940.00
2018-12-31T08:11:05.886Z,984.00
2018-12-31T08:12:05.926Z,996.00
2018-12-31T08:13:05.979Z,892.00
2018-12-31T08:14:06.009Z,888.00
2018-12-31T08:15:06.153Z,980.00
2018-12-31T08:16:06.076Z,1084.00
2018-12-31T08:17:06.114Z,1008.00
2018-12-31T08:18:06.155Z,1024.00
2018-12-31T08:19:06.190Z,1068.00
2018-12-31T08:20:06.227Z,1036.00
2018-12-31T08:21:06.268Z,1088.00
2018-12-31T08:22:06.314Z,1124.00
2018-12-31T08:23:06.350Z,1208.00
2018-12-31T08:24:06.409Z,1320.00
2018-12-31T08:25:06.419Z,1496.00
2018-12-31T08:26:06.465Z,1552.00
2018-12-31T08:27:06.492Z,1772.00
2018-12-31T08:28:06.530Z,1780.00
2018-12-31T08:29:06.568Z,1564.00
2018-12-31T08:30:06.605Z,1592.00
2018-12-31T08:31:06.642Z,1660.00
2018-12-31T08:32:06.682Z,1704.00
2018-12-31T08:33:06.730Z,1748.00
2018-12-31T08:34:06.817Z,1744.00
2018-12-31T08:35:06.793Z,1616.00
2018-12-31T08:36:06.839Z,1548.00
2018-12-31T08:37:06.879Z,1540.00
2018-12-31T08:38:06.908Z,1512.00
2018-12-31T08:39:06.950Z,1440.00
2018-12-31T08:40:06.983Z,1416.00
2018-12-31T08:41:07.021Z,1488.00
2018-12-31T08:42:07.060Z,1568.00
2018-12-31T08:43:07.096Z,1672.00
2018-12-31T08:44:07.133Z,1852.00
2018-12-31T08:45:07.172Z,1984.00
2018-12-31T08:46:07.210Z,2116.00
2018-12-31T08:47:07.254Z,2280.00
2018-12-31T08:48:07.292Z,2532.00
2018-12-31T08:49:07.321Z,2592.00
2018-12-31T08:50:07.479Z,2632.00
2018-12-31T08:51:07.398Z,2608.00
2018-12-31T08:52:07.436Z,2456.00
2018-12-31T08:53:07.473Z,2476.00
2018-12-31T08:54:07.515Z,2460.00
2018-12-31T08:55:07.551Z,2476.00
2018-12-31T08:56:07.590Z,2604.00
2018-12-31T08:57:07.847Z,2764.00
2018-12-31T08:58:07.682Z,2860.00
2018-12-31T08:59:07.710Z,2852.00
2018-12-31T09:00:07.784Z,2940.00
2018-12-31T09:01:07.778Z,2912.00
2018-12-31T09:02:07.817Z,2776.00
2018-12-31T09:03:07.854Z,2816.00
2018-12-31T09:04:07.893Z,2840.00
2018-12-31T09:05:07.932Z,2892.00
2018-12-31T09:06:07.971Z,2928.00
2018-12-31T09:07:08.010Z,2868.00
2018-12-31T09:08:08.052Z,2932.00
2018-12-31T09:09:08.083Z,3300.00
2018-12-31T09:10:08.122Z,3520.00
2018-12-31T09:11:08.158Z,3356.00
2018-12-31T09:12:08.197Z,3344.00
2018-12-31T09:13:08.237Z,3252.00
2018-12-31T09:14:08.272Z,3288.00
2018-12-31T09:15:08.312Z,3356.00
2018-12-31T09:16:08.349Z,3224.00
2018-12-31T09:17:08.387Z,3260.00
2018-12-31T09:18:08.425Z,3388.00
2018-12-31T09:19:08.463Z,3456.00
2018-12-31T09:20:08.502Z,3368.00
2018-12-31T09:21:08.541Z,3212.00
2018-12-31T09:22:08.579Z,3184.00
2018-12-31T09:23:08.615Z,3220.00
2018-12-31T09:24:08.655Z,3208.00
2018-12-31T09:25:08.698Z,3612.00
2018-12-31T09:26:08.782Z,3932.00
2018-12-31T09:27:08.769Z,3596.00
2018-12-31T09:28:08.808Z,3424.00
2018-12-31T09:29:08.846Z,3932.00
2018-12-31T09:30:08.884Z,4820.00
2018-12-31T09:31:08.923Z,4668.00
2018-12-31T09:32:08.977Z,4664.00
2018-12-31T09:33:09.001Z,4676.00
2018-12-31T09:34:09.046Z,4872.00
2018-12-31T09:35:09.075Z,5052.00
2018-12-31T09:36:09.115Z,5676.00
2018-12-31T09:37:09.152Z,6080.00
2018-12-31T09:38:09.191Z,6176.00
2018-12-31T09:39:09.227Z,5980.00
2018-12-31T09:40:09.277Z,6136.00
2018-12-31T09:41:09.366Z,6344.00
2018-12-31T09:42:09.343Z,6352.00
2018-12-31T09:43:09.390Z,6144.00
2018-12-31T09:44:09.423Z,6560.00
2018-12-31T09:45:09.494Z,6004.00
2018-12-31T09:46:09.499Z,5708.00
2018-12-31T09:47:09.536Z,6004.00
2018-12-31T09:48:10.234Z,6220.00
2018-12-31T09:49:09.621Z,5196.00
2018-12-31T09:50:09.662Z,5088.00
2018-12-31T09:51:09.687Z,5040.00
2018-12-31T09:52:09.730Z,5268.00
2018-12-31T09:53:09.767Z,5968.00
2018-12-31T09:54:09.814Z,6216.00
2018-12-31T09:55:09.843Z,6396.00
2018-12-31T09:56:09.981Z,5840.00
2018-12-31T09:57:10.004Z,5396.00
2018-12-31T09:58:10.270Z,5260.00
2018-12-31T09:59:10.014Z,4896.00
2018-12-31T10:00:10.048Z,4676.00
2018-12-31T10:01:10.087Z,4616.00
2018-12-31T10:02:10.116Z,4740.00
2018-12-31T10:03:10.157Z,4984.00
2018-12-31T10:04:10.192Z,5232.00
2018-12-31T10:05:10.281Z,5120.00
2018-12-31T10:06:10.275Z,5288.00
2018-12-31T10:07:10.307Z,5628.00
2018-12-31T10:08:10.349Z,5544.00
2018-12-31T10:09:12.001Z,4636.00
2018-12-31T10:10:10.431Z,3628.00
2018-12-31T10:11:10.465Z,3600.00
2018-12-31T10:12:10.563Z,3872.00
2018-12-31T10:13:10.544Z,3872.00
2018-12-31T10:14:10.588Z,3172.00
2018-12-31T10:15:10.629Z,3464.00
2018-12-31T10:16:10.665Z,4392.00
2018-12-31T10:17:10.698Z,4920.00
2018-12-31T10:18:10.747Z,4456.00
2018-12-31T10:19:10.776Z,4568.00
2018-12-31T10:20:10.821Z,5364.00
2018-12-31T10:21:10.855Z,5500.00
2018-12-31T10:22:10.909Z,5544.00
2018-12-31T10:23:10.935Z,6124.00
2018-12-31T10:24:11.022Z,5764.00
2018-12-31T10:25:11.015Z,4292.00
2018-12-31T10:26:11.051Z,3916.00
2018-12-31T10:27:11.099Z,4144.00
2018-12-31T10:28:11.130Z,4732.00
2018-12-31T10:29:11.173Z,5052.00
2018-12-31T10:30:11.210Z,5168.00
2018-12-31T10:31:11.260Z,5372.00
2018-12-31T10:32:11.286Z,4988.00
2018-12-31T10:33:11.329Z,5140.00
2018-12-31T10:34:11.371Z,5348.00
2018-12-31T10:35:11.404Z,5728.00
2018-12-31T10:36:11.444Z,5576.00
2018-12-31T10:37:11.484Z,5876.00
2018-12-31T10:38:11.525Z,5880.00
2018-12-31T10:39:11.561Z,5584.00
2018-12-31T10:40:11.612Z,5632.00
2018-12-31T10:41:11.640Z,5900.00
2018-12-31T10:42:11.679Z,5904.00
2018-12-31T10:43:11.718Z,6244.00
2018-12-31T10:44:11.766Z,6320.00
2018-12-31T10:45:11.796Z,6264.00
2018-12-31T10:46:11.842Z,5704.00
2018-12-31T10:47:11.882Z,5156.00
2018-12-31T10:48:11.930Z,4888.00
2018-12-31T10:49:11.953Z,4828.00
2018-12-31T10:50:11.998Z,4944.00
2018-12-31T10:51:12.033Z,4932.00
2018-12-31T10:52:12.073Z,5108.00
2018-12-31T10:53:12.118Z,5220.00
2018-12-31T10:54:12.442Z,5140.00
2018-12-31T10:55:12.192Z,5296.00
2018-12-31T10:56:12.231Z,5108.00
2018-12-31T10:57:12.271Z,5292.00
2018-12-31T10:58:12.310Z,6040.00
2018-12-31T10:59:12.347Z,6020.00
2018-12-31T11:00:12.443Z,6500.00
2018-12-31T11:01:12.512Z,6028.00
2018-12-31T11:02:12.467Z,5692.00
2018-12-31T11:03:12.507Z,5280.00
2018-12-31T11:04:12.550Z,5244.00
2018-12-31T11:05:12.586Z,5752.00
2018-12-31T11:06:12.626Z,6064.00
2018-12-31T11:07:12.766Z,5840.00
2018-12-31T11:08:12.710Z,5584.00
2018-12-31T11:09:12.749Z,5804.00
2018-12-31T11:10:12.791Z,5608.00
2018-12-31T11:11:12.823Z,5240.00
2018-12-31T11:12:12.870Z,5044.00
2018-12-31T11:13:12.918Z,4688.00
2018-12-31T11:14:12.945Z,4880.00
2018-12-31T11:15:12.990Z,5368.00
2018-12-31T11:16:13.022Z,5552.00
2018-12-31T11:17:13.062Z,5348.00
2018-12-31T11:18:13.102Z,4664.00
2018-12-31T11:19:13.143Z,4848.00
2018-12-31T11:20:13.182Z,5268.00
2018-12-31T11:21:13.378Z,5804.00
2018-12-31T11:22:13.266Z,6036.00
2018-12-31T11:23:13.301Z,6148.00
2018-12-31T11:24:13.342Z,6048.00
2018-12-31T11:25:13.390Z,5840.00
2018-12-31T11:26:13.430Z,5820.00
2018-12-31T11:27:13.462Z,5452.00
2018-12-31T11:28:13.640Z,5412.00
2018-12-31T11:29:13.545Z,5320.00
2018-12-31T11:30:13.582Z,5212.00
2018-12-31T11:31:13.620Z,5508.00
2018-12-31T11:32:13.661Z,5872.00
2018-12-31T11:33:13.700Z,5984.00
2018-12-31T11:34:13.743Z,5532.00
2018-12-31T11:35:13.788Z,5172.00
2018-12-31T11:36:13.841Z,4820.00
2018-12-31T11:37:13.860Z,4252.00
2018-12-31T11:38:13.913Z,4428.00
2018-12-31T11:39:13.949Z,4436.00
2018-12-31T11:40:13.980Z,4668.00
2018-12-31T11:41:14.020Z,5000.00
2018-12-31T11:42:14.058Z,6068.00
2018-12-31T11:43:14.100Z,6448.00
2018-12-31T11:44:14.143Z,5212.00
2018-12-31T11:45:14.195Z,4944.00
2018-12-31T11:46:14.220Z,5124.00
2018-12-31T11:47:14.260Z,5568.00
2018-12-31T11:48:14.299Z,5668.00
2018-12-31T11:49:14.339Z,4660.00
2018-12-31T11:50:14.379Z,4752.00
2018-12-31T11:51:14.430Z,5040.00
2018-12-31T11:52:14.464Z,5204.00
2018-12-31T11:53:14.500Z,5052.00
2018-12-31T11:54:14.539Z,5364.00
2018-12-31T11:55:14.591Z,5460.00
2018-12-31T11:56:14.619Z,5896.00
2018-12-31T11:57:14.770Z,6644.00
2018-12-31T11:58:14.699Z,7072.00
2018-12-31T11:59:14.747Z,7028.00
2018-12-31T12:00:14.779Z,6136.00
2018-12-31T12:01:14.819Z,5952.00
2018-12-31T12:02:14.859Z,6488.00
2018-12-31T12:03:14.900Z,6712.00
2018-12-31T12:04:15.004Z,6908.00
2018-12-31T12:05:14.980Z,6424.00
2018-12-31T12:06:15.020Z,5296.00
2018-12-31T12:07:15.057Z,5124.00
2018-12-31T12:08:15.100Z,5772.00
2018-12-31T12:09:15.139Z,5540.00
2018-12-31T12:10:15.179Z,4860.00
2018-12-31T12:11:15.220Z,4328.00
2018-12-31T12:12:15.258Z,3884.00
2018-12-31T12:13:15.300Z,3728.00
2018-12-31T12:14:15.344Z,3608.00
2018-12-31T12:15:15.394Z,3512.00
2018-12-31T12:16:15.420Z,2976.00
2018-12-31T12:17:15.460Z,2576.00
2018-12-31T12:18:15.499Z,2868.00
2018-12-31T12:19:15.540Z,3148.00
2018-12-31T12:20:15.589Z,3076.00
2018-12-31T12:21:15.631Z,3008.00
2018-12-31T12:22:15.670Z,3140.00
2018-12-31T12:23:15.713Z,3172.00
2018-12-31T12:24:15.750Z,3024.00
2018-12-31T12:25:15.783Z,3060.00
2018-12-31T12:26:15.824Z,3132.00
2018-12-31T12:27:15.873Z,3580.00
2018-12-31T12:28:15.902Z,4200.00
2018-12-31T12:29:15.950Z,4504.00
2018-12-31T12:30:15.981Z,4500.00
2018-12-31T12:31:16.028Z,4396.00
2018-12-31T12:32:16.065Z,4444.00
2018-12-31T12:33:16.104Z,4668.00
2018-12-31T12:34:16.253Z,4804.00
2018-12-31T12:35:16.182Z,4752.00
2018-12-31T12:36:16.221Z,4780.00
2018-12-31T12:37:16.262Z,4920.00
2018-12-31T12:38:16.303Z,4876.00
2018-12-31T12:39:16.359Z,4712.00
2018-12-31T12:40:16.403Z,4300.00
2018-12-31T12:41:16.423Z,4120.00
2018-12-31T12:42:16.468Z,4228.00
2018-12-31T12:43:16.505Z,3948.00
2018-12-31T12:44:16.543Z,3660.00
2018-12-31T12:45:16.586Z,3564.00
2018-12-31T12:46:16.628Z,3312.00
2018-12-31T12:47:16.661Z,3004.00